sensor_id;sensor_type;location;lat;lon;timestamp;temperature;humidity
8832;DHT22;4452;50.756;4.472;2024-01-30T00:02:11;9.60;99.90
8832;DHT22;4452;50.756;4.472;2024-01-30T00:04:36;9.60;99.90
8832;DHT22;4452;50.756;4.472;2024-01-30T00:07:02;9.60;99.90
8832;DHT22;4452;50.756;4.472;2024-01-30T00:09:29;9.70;99.90
8832;DHT22;4452;50.756;4.472;2024-01-30T00:11:56;9.60;99.90
8832;DHT22;4452;50.756;4.472;2024-01-30T00:14:21;9.60;99.90
8832;DHT22;4452;50.756;4.472;2024-01-30T00:16:47;9.60;99.90
8832;DHT22;4452;50.756;4.472;2024-01-30T00:19:13;9.60;99.90
8832;DHT22;4452;50.756;4.472;2024-01-30T00:21:38;9.50;99.90
8832;DHT22;4452;50.756;4.472;2024-01-30T00:24:04;9.60;99.90
8832;DHT22;4452;50.756;4.472;2024-01-30T00:26:30;9.50;99.90
8832;DHT22;4452;50.756;4.472;2024-01-30T00:28:56;9.50;99.90
8832;DHT22;4452;50.756;4.472;2024-01-30T00:31:21;9.60;99.90
8832;DHT22;4452;50.756;4.472;2024-01-30T00:33:47;9.60;99.90
8832;DHT22;4452;50.756;4.472;2024-01-30T00:36:12;9.60;99.90
8832;DHT22;4452;50.756;4.472;2024-01-30T00:38:38;9.60;99.90
8832;DHT22;4452;50.756;4.472;2024-01-30T00:41:04;9.50;99.90
8832;DHT22;4452;50.756;4.472;2024-01-30T00:43:30;9.60;99.90
8832;DHT22;4452;50.756;4.472;2024-01-30T00:45:56;9.60;99.90
8832;DHT22;4452;50.756;4.472;2024-01-30T00:48:23;9.60;99.90
8832;DHT22;4452;50.756;4.472;2024-01-30T00:50:49;9.50;99.90
8832;DHT22;4452;50.756;4.472;2024-01-30T00:53:15;9.60;99.90
8832;DHT22;4452;50.756;4.472;2024-01-30T00:55:40;9.50;99.90
8832;DHT22;4452;50.756;4.472;2024-01-30T00:58:06;9.50;99.90
8832;DHT22;4452;50.756;4.472;2024-01-30T01:00:32;9.60;99.90
8832;DHT22;4452;50.756;4.472;2024-01-30T01:02:58;9.60;99.90
8832;DHT22;4452;50.756;4.472;2024-01-30T01:05:24;9.70;99.90
8832;DHT22;4452;50.756;4.472;2024-01-30T01:07:50;9.70;99.90
8832;DHT22;4452;50.756;4.472;2024-01-30T01:10:19;9.70;99.90
8832;DHT22;4452;50.756;4.472;2024-01-30T01:12:45;9.70;99.90
8832;DHT22;4452;50.756;4.472;2024-01-30T01:15:12;9.70;99.90
8832;DHT22;4452;50.756;4.472;2024-01-30T01:17:38;9.90;99.90
8832;DHT22;4452;50.756;4.472;2024-01-30T01:20:05;9.80;99.90
8832;DHT22;4452;50.756;4.472;2024-01-30T01:22:31;9.80;99.90
8832;DHT22;4452;50.756;4.472;2024-01-30T01:24:58;9.70;99.90
8832;DHT22;4452;50.756;4.472;2024-01-30T01:27:24;9.80;99.90
8832;DHT22;4452;50.756;4.472;2024-01-30T01:29:50;9.80;99.90
8832;DHT22;4452;50.756;4.472;2024-01-30T01:32:16;9.70;99.90
8832;DHT22;4452;50.756;4.472;2024-01-30T01:34:42;9.70;99.90
8832;DHT22;4452;50.756;4.472;2024-01-30T01:37:07;9.80;99.90
8832;DHT22;4452;50.756;4.472;2024-01-30T01:39:33;9.80;99.90
8832;DHT22;4452;50.756;4.472;2024-01-30T01:41:59;9.70;99.90
8832;DHT22;4452;50.756;4.472;2024-01-30T01:44:25;9.70;99.90
8832;DHT22;4452;50.756;4.472;2024-01-30T01:46:51;9.60;99.90
8832;DHT22;4452;50.756;4.472;2024-01-30T01:49:18;9.60;99.90
8832;DHT22;4452;50.756;4.472;2024-01-30T01:51:45;9.60;99.90
8832;DHT22;4452;50.756;4.472;2024-01-30T01:54:14;9.60;99.90
8832;DHT22;4452;50.756;4.472;2024-01-30T01:56:42;9.60;99.90
8832;DHT22;4452;50.756;4.472;2024-01-30T01:59:09;9.60;99.90
8832;DHT22;4452;50.756;4.472;2024-01-30T02:01:38;9.60;99.90
8832;DHT22;4452;50.756;4.472;2024-01-30T02:04:07;9.50;99.90
8832;DHT22;4452;50.756;4.472;2024-01-30T02:06:34;9.40;99.90
8832;DHT22;4452;50.756;4.472;2024-01-30T02:09:00;9.50;99.90
8832;DHT22;4452;50.756;4.472;2024-01-30T02:11:26;9.50;99.90
8832;DHT22;4452;50.756;4.472;2024-01-30T02:13:53;9.50;99.90
8832;DHT22;4452;50.756;4.472;2024-01-30T02:16:19;9.50;99.90
8832;DHT22;4452;50.756;4.472;2024-01-30T02:18:44;9.50;99.90
8832;DHT22;4452;50.756;4.472;2024-01-30T02:21:16;9.60;99.90
8832;DHT22;4452;50.756;4.472;2024-01-30T02:23:43;9.50;99.90
8832;DHT22;4452;50.756;4.472;2024-01-30T02:26:09;9.50;99.90
8832;DHT22;4452;50.756;4.472;2024-01-30T02:28:35;9.70;99.90
8832;DHT22;4452;50.756;4.472;2024-01-30T02:31:01;9.60;99.90
8832;DHT22;4452;50.756;4.472;2024-01-30T02:33:27;9.50;99.90
8832;DHT22;4452;50.756;4.472;2024-01-30T02:35:52;9.60;99.90
8832;DHT22;4452;50.756;4.472;2024-01-30T02:38:18;9.80;99.90
8832;DHT22;4452;50.756;4.472;2024-01-30T02:40:44;9.50;99.90
8832;DHT22;4452;50.756;4.472;2024-01-30T02:43:09;9.50;99.90
8832;DHT22;4452;50.756;4.472;2024-01-30T02:45:35;9.50;99.90
8832;DHT22;4452;50.756;4.472;2024-01-30T02:48:01;9.60;99.90
8832;DHT22;4452;50.756;4.472;2024-01-30T02:50:26;9.50;99.90
8832;DHT22;4452;50.756;4.472;2024-01-30T02:52:52;9.50;99.90
8832;DHT22;4452;50.756;4.472;2024-01-30T02:55:17;9.70;99.90
8832;DHT22;4452;50.756;4.472;2024-01-30T02:57:44;9.50;99.90
8832;DHT22;4452;50.756;4.472;2024-01-30T03:00:10;9.90;99.90
8832;DHT22;4452;50.756;4.472;2024-01-30T03:02:36;9.60;99.90
8832;DHT22;4452;50.756;4.472;2024-01-30T03:05:03;9.60;99.90
8832;DHT22;4452;50.756;4.472;2024-01-30T03:07:29;9.60;99.90
8832;DHT22;4452;50.756;4.472;2024-01-30T03:09:55;9.60;99.90
8832;DHT22;4452;50.756;4.472;2024-01-30T03:12:21;9.80;99.90
8832;DHT22;4452;50.756;4.472;2024-01-30T03:14:47;9.60;99.90
8832;DHT22;4452;50.756;4.472;2024-01-30T03:17:13;9.60;99.90
8832;DHT22;4452;50.756;4.472;2024-01-30T03:19:39;9.90;99.90
8832;DHT22;4452;50.756;4.472;2024-01-30T03:22:04;9.60;99.90
8832;DHT22;4452;50.756;4.472;2024-01-30T03:24:30;9.90;99.90
8832;DHT22;4452;50.756;4.472;2024-01-30T03:26:56;9.70;99.90
8832;DHT22;4452;50.756;4.472;2024-01-30T03:29:21;9.90;99.90
8832;DHT22;4452;50.756;4.472;2024-01-30T03:31:47;9.80;99.90
8832;DHT22;4452;50.756;4.472;2024-01-30T03:34:13;9.60;99.90
8832;DHT22;4452;50.756;4.472;2024-01-30T03:36:39;9.70;99.90
8832;DHT22;4452;50.756;4.472;2024-01-30T03:39:05;9.70;99.90
8832;DHT22;4452;50.756;4.472;2024-01-30T03:41:31;9.60;99.90
8832;DHT22;4452;50.756;4.472;2024-01-30T03:43:57;9.80;99.90
8832;DHT22;4452;50.756;4.472;2024-01-30T03:46:23;9.90;99.90
8832;DHT22;4452;50.756;4.472;2024-01-30T03:48:48;9.70;99.90
8832;DHT22;4452;50.756;4.472;2024-01-30T03:51:14;9.60;99.90
8832;DHT22;4452;50.756;4.472;2024-01-30T03:53:44;9.60;99.90
8832;DHT22;4452;50.756;4.472;2024-01-30T03:56:12;9.50;99.90
8832;DHT22;4452;50.756;4.472;2024-01-30T03:58:39;9.40;99.90
8832;DHT22;4452;50.756;4.472;2024-01-30T04:01:05;9.70;99.90
8832;DHT22;4452;50.756;4.472;2024-01-30T04:03:30;9.50;99.90
8832;DHT22;4452;50.756;4.472;2024-01-30T04:05:56;9.80;99.90
8832;DHT22;4452;50.756;4.472;2024-01-30T04:08:22;9.50;99.90
8832;DHT22;4452;50.756;4.472;2024-01-30T04:10:47;9.70;99.90
8832;DHT22;4452;50.756;4.472;2024-01-30T04:13:13;9.60;99.90
8832;DHT22;4452;50.756;4.472;2024-01-30T04:15:39;9.90;99.90
8832;DHT22;4452;50.756;4.472;2024-01-30T04:18:05;9.50;99.90
8832;DHT22;4452;50.756;4.472;2024-01-30T04:20:31;9.50;99.90
8832;DHT22;4452;50.756;4.472;2024-01-30T04:22:56;9.70;99.90
8832;DHT22;4452;50.756;4.472;2024-01-30T04:25:22;9.60;99.90
8832;DHT22;4452;50.756;4.472;2024-01-30T04:27:48;9.60;99.90
8832;DHT22;4452;50.756;4.472;2024-01-30T04:30:14;9.70;99.90
8832;DHT22;4452;50.756;4.472;2024-01-30T04:32:40;9.50;99.90
8832;DHT22;4452;50.756;4.472;2024-01-30T04:35:05;9.60;99.90
8832;DHT22;4452;50.756;4.472;2024-01-30T04:37:31;9.60;99.90
8832;DHT22;4452;50.756;4.472;2024-01-30T04:39:57;9.80;99.90
8832;DHT22;4452;50.756;4.472;2024-01-30T04:42:23;9.30;99.90
8832;DHT22;4452;50.756;4.472;2024-01-30T04:44:49;9.50;99.90
8832;DHT22;4452;50.756;4.472;2024-01-30T04:47:15;9.80;99.90
8832;DHT22;4452;50.756;4.472;2024-01-30T04:49:41;9.50;99.90
8832;DHT22;4452;50.756;4.472;2024-01-30T04:52:07;9.50;99.90
8832;DHT22;4452;50.756;4.472;2024-01-30T04:54:34;9.40;99.90
8832;DHT22;4452;50.756;4.472;2024-01-30T04:57:00;9.50;99.90
8832;DHT22;4452;50.756;4.472;2024-01-30T04:59:26;9.50;99.90
8832;DHT22;4452;50.756;4.472;2024-01-30T05:01:51;9.20;99.90
8832;DHT22;4452;50.756;4.472;2024-01-30T05:04:17;9.50;99.90
8832;DHT22;4452;50.756;4.472;2024-01-30T05:06:43;9.70;99.90
8832;DHT22;4452;50.756;4.472;2024-01-30T05:09:09;9.60;99.90
8832;DHT22;4452;50.756;4.472;2024-01-30T05:11:38;9.70;99.90
8832;DHT22;4452;50.756;4.472;2024-01-30T05:14:05;9.80;99.90
8832;DHT22;4452;50.756;4.472;2024-01-30T05:16:31;9.50;99.90
8832;DHT22;4452;50.756;4.472;2024-01-30T05:18:57;9.40;99.90
8832;DHT22;4452;50.756;4.472;2024-01-30T05:21:23;9.50;99.90
8832;DHT22;4452;50.756;4.472;2024-01-30T05:23:49;9.70;99.90
8832;DHT22;4452;50.756;4.472;2024-01-30T05:26:14;9.50;99.90
8832;DHT22;4452;50.756;4.472;2024-01-30T05:28:40;9.50;99.90
8832;DHT22;4452;50.756;4.472;2024-01-30T05:31:06;9.80;99.90
8832;DHT22;4452;50.756;4.472;2024-01-30T05:33:32;9.50;99.90
8832;DHT22;4452;50.756;4.472;2024-01-30T05:35:57;9.80;99.90
8832;DHT22;4452;50.756;4.472;2024-01-30T05:38:23;9.50;99.90
8832;DHT22;4452;50.756;4.472;2024-01-30T05:40:49;9.50;99.90
8832;DHT22;4452;50.756;4.472;2024-01-30T05:43:14;9.50;99.90
8832;DHT22;4452;50.756;4.472;2024-01-30T05:45:40;9.70;99.90
8832;DHT22;4452;50.756;4.472;2024-01-30T05:48:06;9.50;99.90
8832;DHT22;4452;50.756;4.472;2024-01-30T05:50:32;9.50;99.90
8832;DHT22;4452;50.756;4.472;2024-01-30T05:52:58;9.70;99.90
8832;DHT22;4452;50.756;4.472;2024-01-30T05:55:23;9.90;99.90
8832;DHT22;4452;50.756;4.472;2024-01-30T05:57:49;9.80;99.90
8832;DHT22;4452;50.756;4.472;2024-01-30T06:00:15;10.00;99.90
8832;DHT22;4452;50.756;4.472;2024-01-30T06:02:41;9.60;99.90
8832;DHT22;4452;50.756;4.472;2024-01-30T06:05:07;9.60;99.90
8832;DHT22;4452;50.756;4.472;2024-01-30T06:07:32;9.60;99.90
8832;DHT22;4452;50.756;4.472;2024-01-30T06:09:58;9.70;99.90
8832;DHT22;4452;50.756;4.472;2024-01-30T06:12:27;9.70;99.90
8832;DHT22;4452;50.756;4.472;2024-01-30T06:14:53;9.70;99.90
8832;DHT22;4452;50.756;4.472;2024-01-30T06:17:22;9.80;99.90
8832;DHT22;4452;50.756;4.472;2024-01-30T06:19:48;9.90;99.90
8832;DHT22;4452;50.756;4.472;2024-01-30T06:22:14;9.70;99.90
8832;DHT22;4452;50.756;4.472;2024-01-30T06:24:39;9.60;99.90
8832;DHT22;4452;50.756;4.472;2024-01-30T06:27:05;9.90;99.90
8832;DHT22;4452;50.756;4.472;2024-01-30T06:29:31;9.60;99.90
8832;DHT22;4452;50.756;4.472;2024-01-30T06:31:56;9.70;99.90
8832;DHT22;4452;50.756;4.472;2024-01-30T06:34:22;9.70;99.90
8832;DHT22;4452;50.756;4.472;2024-01-30T06:36:48;9.60;99.90
8832;DHT22;4452;50.756;4.472;2024-01-30T06:39:14;9.60;99.90
8832;DHT22;4452;50.756;4.472;2024-01-30T06:41:39;9.80;99.90
8832;DHT22;4452;50.756;4.472;2024-01-30T06:44:05;9.60;99.90
8832;DHT22;4452;50.756;4.472;2024-01-30T06:46:32;10.00;99.90
8832;DHT22;4452;50.756;4.472;2024-01-30T06:48:58;9.60;99.90
8832;DHT22;4452;50.756;4.472;2024-01-30T06:51:23;9.50;99.90
8832;DHT22;4452;50.756;4.472;2024-01-30T06:53:49;9.80;99.90
8832;DHT22;4452;50.756;4.472;2024-01-30T06:56:15;9.90;99.90
8832;DHT22;4452;50.756;4.472;2024-01-30T06:58:42;9.80;99.90
8832;DHT22;4452;50.756;4.472;2024-01-30T07:01:07;10.20;99.90
8832;DHT22;4452;50.756;4.472;2024-01-30T07:03:33;9.70;99.90
8832;DHT22;4452;50.756;4.472;2024-01-30T07:05:59;9.60;99.90
8832;DHT22;4452;50.756;4.472;2024-01-30T07:08:24;9.60;99.90
8832;DHT22;4452;50.756;4.472;2024-01-30T07:10:50;9.60;99.90
8832;DHT22;4452;50.756;4.472;2024-01-30T07:13:16;9.60;99.90
8832;DHT22;4452;50.756;4.472;2024-01-30T07:15:42;9.90;99.90
8832;DHT22;4452;50.756;4.472;2024-01-30T07:18:08;9.50;99.90
8832;DHT22;4452;50.756;4.472;2024-01-30T07:20:35;9.60;99.90
8832;DHT22;4452;50.756;4.472;2024-01-30T07:23:00;9.50;99.90
8832;DHT22;4452;50.756;4.472;2024-01-30T07:25:26;9.80;99.90
8832;DHT22;4452;50.756;4.472;2024-01-30T07:27:55;9.50;99.90
8832;DHT22;4452;50.756;4.472;2024-01-30T07:30:21;9.70;99.90
8832;DHT22;4452;50.756;4.472;2024-01-30T07:32:47;9.60;99.90
8832;DHT22;4452;50.756;4.472;2024-01-30T07:35:14;9.60;99.90
8832;DHT22;4452;50.756;4.472;2024-01-30T07:37:39;9.80;99.90
8832;DHT22;4452;50.756;4.472;2024-01-30T07:40:06;10.00;99.90
8832;DHT22;4452;50.756;4.472;2024-01-30T07:42:33;10.00;99.90
8832;DHT22;4452;50.756;4.472;2024-01-30T07:44:59;10.00;99.90
8832;DHT22;4452;50.756;4.472;2024-01-30T07:47:25;10.10;99.90
8832;DHT22;4452;50.756;4.472;2024-01-30T07:49:51;10.20;99.90
8832;DHT22;4452;50.756;4.472;2024-01-30T07:52:16;10.20;99.90
8832;DHT22;4452;50.756;4.472;2024-01-30T07:54:49;10.20;99.90
8832;DHT22;4452;50.756;4.472;2024-01-30T07:57:14;10.30;99.90
8832;DHT22;4452;50.756;4.472;2024-01-30T07:59:42;10.30;99.90
8832;DHT22;4452;50.756;4.472;2024-01-30T08:02:10;10.30;99.90
8832;DHT22;4452;50.756;4.472;2024-01-30T08:04:35;10.40;99.90
8832;DHT22;4452;50.756;4.472;2024-01-30T08:07:01;10.40;99.90
8832;DHT22;4452;50.756;4.472;2024-01-30T08:09:27;10.40;99.90
8832;DHT22;4452;50.756;4.472;2024-01-30T08:11:52;10.40;99.90
8832;DHT22;4452;50.756;4.472;2024-01-30T08:14:18;10.40;99.90
8832;DHT22;4452;50.756;4.472;2024-01-30T08:16:44;10.40;99.90
8832;DHT22;4452;50.756;4.472;2024-01-30T08:19:10;10.40;99.90
8832;DHT22;4452;50.756;4.472;2024-01-30T08:21:35;10.50;99.90
8832;DHT22;4452;50.756;4.472;2024-01-30T08:24:05;10.50;99.90
8832;DHT22;4452;50.756;4.472;2024-01-30T08:26:34;10.50;99.90
8832;DHT22;4452;50.756;4.472;2024-01-30T08:29:01;10.50;99.90
8832;DHT22;4452;50.756;4.472;2024-01-30T08:31:27;10.50;99.90
8832;DHT22;4452;50.756;4.472;2024-01-30T08:33:52;10.50;99.90
8832;DHT22;4452;50.756;4.472;2024-01-30T08:36:18;10.50;99.90
8832;DHT22;4452;50.756;4.472;2024-01-30T08:38:44;10.50;99.90
8832;DHT22;4452;50.756;4.472;2024-01-30T08:41:10;10.60;99.90
8832;DHT22;4452;50.756;4.472;2024-01-30T08:43:35;10.60;99.90
8832;DHT22;4452;50.756;4.472;2024-01-30T08:46:02;10.60;99.90
8832;DHT22;4452;50.756;4.472;2024-01-30T08:48:28;10.60;99.90
8832;DHT22;4452;50.756;4.472;2024-01-30T08:50:53;10.60;99.90
8832;DHT22;4452;50.756;4.472;2024-01-30T08:53:19;10.70;99.90
8832;DHT22;4452;50.756;4.472;2024-01-30T08:55:45;10.70;99.90
8832;DHT22;4452;50.756;4.472;2024-01-30T08:58:11;10.80;99.90
8832;DHT22;4452;50.756;4.472;2024-01-30T09:00:37;10.80;99.90
8832;DHT22;4452;50.756;4.472;2024-01-30T09:03:03;10.70;99.90
8832;DHT22;4452;50.756;4.472;2024-01-30T09:05:29;10.80;99.90
8832;DHT22;4452;50.756;4.472;2024-01-30T09:07:55;10.80;99.90
8832;DHT22;4452;50.756;4.472;2024-01-30T09:10:21;10.80;99.90
8832;DHT22;4452;50.756;4.472;2024-01-30T09:12:47;10.80;99.90
8832;DHT22;4452;50.756;4.472;2024-01-30T09:15:13;10.80;99.90
8832;DHT22;4452;50.756;4.472;2024-01-30T09:17:38;10.80;99.90
8832;DHT22;4452;50.756;4.472;2024-01-30T09:20:05;10.80;99.90
8832;DHT22;4452;50.756;4.472;2024-01-30T09:22:31;10.90;99.90
8832;DHT22;4452;50.756;4.472;2024-01-30T09:24:57;10.90;99.90
8832;DHT22;4452;50.756;4.472;2024-01-30T09:27:23;10.90;99.90
8832;DHT22;4452;50.756;4.472;2024-01-30T09:29:49;10.90;99.90
8832;DHT22;4452;50.756;4.472;2024-01-30T09:32:14;10.90;99.90
8832;DHT22;4452;50.756;4.472;2024-01-30T09:34:40;11.00;99.90
8832;DHT22;4452;50.756;4.472;2024-01-30T09:37:07;11.00;99.90
8832;DHT22;4452;50.756;4.472;2024-01-30T09:39:32;11.00;99.90
8832;DHT22;4452;50.756;4.472;2024-01-30T09:44:25;11.00;99.90
8832;DHT22;4452;50.756;4.472;2024-01-30T09:46:53;11.00;99.90
8832;DHT22;4452;50.756;4.472;2024-01-30T09:49:20;11.00;99.90
8832;DHT22;4452;50.756;4.472;2024-01-30T09:51:49;11.00;99.90
8832;DHT22;4452;50.756;4.472;2024-01-30T09:54:17;11.00;99.90
8832;DHT22;4452;50.756;4.472;2024-01-30T09:56:43;11.00;99.90
8832;DHT22;4452;50.756;4.472;2024-01-30T09:59:09;11.00;99.90
8832;DHT22;4452;50.756;4.472;2024-01-30T10:01:37;11.00;99.90
8832;DHT22;4452;50.756;4.472;2024-01-30T10:04:05;10.90;99.90
8832;DHT22;4452;50.756;4.472;2024-01-30T10:06:32;10.90;99.90
8832;DHT22;4452;50.756;4.472;2024-01-30T10:09:01;10.90;99.90
8832;DHT22;4452;50.756;4.472;2024-01-30T10:11:28;10.90;99.90
8832;DHT22;4452;50.756;4.472;2024-01-30T10:13:54;10.90;99.90
8832;DHT22;4452;50.756;4.472;2024-01-30T10:16:19;10.90;99.90
8832;DHT22;4452;50.756;4.472;2024-01-30T10:18:45;10.90;99.90
8832;DHT22;4452;50.756;4.472;2024-01-30T10:21:11;10.90;99.90
8832;DHT22;4452;50.756;4.472;2024-01-30T10:23:38;10.90;99.90
8832;DHT22;4452;50.756;4.472;2024-01-30T10:26:07;10.90;99.90
8832;DHT22;4452;50.756;4.472;2024-01-30T10:28:33;11.00;99.90
8832;DHT22;4452;50.756;4.472;2024-01-30T10:31:02;11.00;99.90
8832;DHT22;4452;50.756;4.472;2024-01-30T10:33:31;11.10;99.90
8832;DHT22;4452;50.756;4.472;2024-01-30T10:36:01;11.10;99.90
8832;DHT22;4452;50.756;4.472;2024-01-30T10:38:31;11.00;99.90
8832;DHT22;4452;50.756;4.472;2024-01-30T10:40:59;11.00;99.90
8832;DHT22;4452;50.756;4.472;2024-01-30T10:43:31;11.00;99.90
8832;DHT22;4452;50.756;4.472;2024-01-30T10:48:36;10.90;99.90
8832;DHT22;4452;50.756;4.472;2024-01-30T10:51:09;10.80;99.90
8832;DHT22;4452;50.756;4.472;2024-01-30T10:53:36;10.80;99.90
8832;DHT22;4452;50.756;4.472;2024-01-30T10:56:05;10.70;99.90
8832;DHT22;4452;50.756;4.472;2024-01-30T10:58:33;10.70;99.90
8832;DHT22;4452;50.756;4.472;2024-01-30T11:01:06;10.70;99.90
8832;DHT22;4452;50.756;4.472;2024-01-30T11:03:34;10.70;99.90
8832;DHT22;4452;50.756;4.472;2024-01-30T11:06:02;10.70;99.90
8832;DHT22;4452;50.756;4.472;2024-01-30T11:08:31;10.70;99.90
8832;DHT22;4452;50.756;4.472;2024-01-30T11:10:58;10.70;99.90
8832;DHT22;4452;50.756;4.472;2024-01-30T11:13:30;10.70;99.90
8832;DHT22;4452;50.756;4.472;2024-01-30T11:16:03;10.70;99.90
8832;DHT22;4452;50.756;4.472;2024-01-30T11:18:30;10.70;99.90
8832;DHT22;4452;50.756;4.472;2024-01-30T11:20:57;10.60;99.90
8832;DHT22;4452;50.756;4.472;2024-01-30T11:23:23;10.60;99.90
8832;DHT22;4452;50.756;4.472;2024-01-30T11:25:49;10.50;99.90
8832;DHT22;4452;50.756;4.472;2024-01-30T11:28:18;10.50;99.90
8832;DHT22;4452;50.756;4.472;2024-01-30T11:30:44;10.40;99.90
8832;DHT22;4452;50.756;4.472;2024-01-30T11:33:11;10.40;99.90
8832;DHT22;4452;50.756;4.472;2024-01-30T11:35:39;10.50;99.90
8832;DHT22;4452;50.756;4.472;2024-01-30T11:38:06;10.60;99.90
8832;DHT22;4452;50.756;4.472;2024-01-30T11:40:34;10.60;99.90
8832;DHT22;4452;50.756;4.472;2024-01-30T11:43:01;10.60;99.90
8832;DHT22;4452;50.756;4.472;2024-01-30T11:45:28;10.50;99.90
8832;DHT22;4452;50.756;4.472;2024-01-30T11:47:54;10.40;99.90
8832;DHT22;4452;50.756;4.472;2024-01-30T11:50:20;10.40;99.90
8832;DHT22;4452;50.756;4.472;2024-01-30T11:52:47;10.40;99.90
8832;DHT22;4452;50.756;4.472;2024-01-30T11:55:13;10.40;99.90
8832;DHT22;4452;50.756;4.472;2024-01-30T11:57:39;10.40;99.90
8832;DHT22;4452;50.756;4.472;2024-01-30T12:00:06;10.50;99.90
8832;DHT22;4452;50.756;4.472;2024-01-30T12:02:36;10.50;99.90
8832;DHT22;4452;50.756;4.472;2024-01-30T12:05:09;10.50;99.90
8832;DHT22;4452;50.756;4.472;2024-01-30T12:07:35;10.50;99.90
8832;DHT22;4452;50.756;4.472;2024-01-30T12:10:01;10.50;99.90
8832;DHT22;4452;50.756;4.472;2024-01-30T12:12:28;10.50;99.90
8832;DHT22;4452;50.756;4.472;2024-01-30T12:14:55;10.50;99.90
8832;DHT22;4452;50.756;4.472;2024-01-30T12:17:39;10.60;99.90
8832;DHT22;4452;50.756;4.472;2024-01-30T12:20:17;10.40;99.90
8832;DHT22;4452;50.756;4.472;2024-01-30T12:22:44;10.40;99.90
8832;DHT22;4452;50.756;4.472;2024-01-30T12:25:12;10.50;99.90
8832;DHT22;4452;50.756;4.472;2024-01-30T12:27:39;10.40;99.90
8832;DHT22;4452;50.756;4.472;2024-01-30T12:30:08;10.50;99.90
8832;DHT22;4452;50.756;4.472;2024-01-30T12:32:35;10.80;99.90
8832;DHT22;4452;50.756;4.472;2024-01-30T12:35:02;10.90;99.90
8832;DHT22;4452;50.756;4.472;2024-01-30T12:37:29;10.90;99.90
8832;DHT22;4452;50.756;4.472;2024-01-30T12:39:55;10.70;99.90
8832;DHT22;4452;50.756;4.472;2024-01-30T12:42:21;10.30;99.90
8832;DHT22;4452;50.756;4.472;2024-01-30T12:44:48;10.40;99.90
8832;DHT22;4452;50.756;4.472;2024-01-30T12:47:14;10.40;99.90
8832;DHT22;4452;50.756;4.472;2024-01-30T12:49:42;10.40;99.90
8832;DHT22;4452;50.756;4.472;2024-01-30T12:52:09;10.40;99.90
8832;DHT22;4452;50.756;4.472;2024-01-30T12:54:35;10.40;99.90
8832;DHT22;4452;50.756;4.472;2024-01-30T12:57:00;10.30;99.90
8832;DHT22;4452;50.756;4.472;2024-01-30T12:59:26;10.30;99.90
8832;DHT22;4452;50.756;4.472;2024-01-30T13:01:52;10.20;99.90
8832;DHT22;4452;50.756;4.472;2024-01-30T13:04:17;10.20;99.90
8832;DHT22;4452;50.756;4.472;2024-01-30T13:06:43;10.50;99.90
8832;DHT22;4452;50.756;4.472;2024-01-30T13:09:09;10.60;99.90
8832;DHT22;4452;50.756;4.472;2024-01-30T13:11:35;10.70;99.90
8832;DHT22;4452;50.756;4.472;2024-01-30T13:14:01;10.60;99.90
8832;DHT22;4452;50.756;4.472;2024-01-30T13:16:27;10.70;99.90
8832;DHT22;4452;50.756;4.472;2024-01-30T13:18:52;10.90;99.90
8832;DHT22;4452;50.756;4.472;2024-01-30T13:21:20;10.80;99.90
8832;DHT22;4452;50.756;4.472;2024-01-30T13:23:46;10.70;99.90
8832;DHT22;4452;50.756;4.472;2024-01-30T13:26:11;10.90;99.90
8832;DHT22;4452;50.756;4.472;2024-01-30T13:28:37;10.90;99.90
8832;DHT22;4452;50.756;4.472;2024-01-30T13:31:04;10.80;99.90
8832;DHT22;4452;50.756;4.472;2024-01-30T13:33:30;10.90;99.90
8832;DHT22;4452;50.756;4.472;2024-01-30T13:35:56;10.80;99.90
8832;DHT22;4452;50.756;4.472;2024-01-30T13:38:22;10.80;99.90
8832;DHT22;4452;50.756;4.472;2024-01-30T13:40:47;11.00;99.90
8832;DHT22;4452;50.756;4.472;2024-01-30T13:43:13;11.10;99.90
8832;DHT22;4452;50.756;4.472;2024-01-30T13:45:39;10.90;99.90
8832;DHT22;4452;50.756;4.472;2024-01-30T13:48:05;10.60;99.90
8832;DHT22;4452;50.756;4.472;2024-01-30T13:50:31;10.60;99.90
8832;DHT22;4452;50.756;4.472;2024-01-30T13:52:58;10.70;99.90
8832;DHT22;4452;50.756;4.472;2024-01-30T13:55:24;10.50;99.90
8832;DHT22;4452;50.756;4.472;2024-01-30T13:57:50;10.50;99.90
8832;DHT22;4452;50.756;4.472;2024-01-30T14:00:16;10.40;99.90
8832;DHT22;4452;50.756;4.472;2024-01-30T14:02:42;10.50;99.90
8832;DHT22;4452;50.756;4.472;2024-01-30T14:05:08;10.50;99.90
8832;DHT22;4452;50.756;4.472;2024-01-30T14:07:36;10.80;99.90
8832;DHT22;4452;50.756;4.472;2024-01-30T14:10:03;10.90;99.90
8832;DHT22;4452;50.756;4.472;2024-01-30T14:12:29;10.80;99.90
8832;DHT22;4452;50.756;4.472;2024-01-30T14:14:55;10.60;99.90
8832;DHT22;4452;50.756;4.472;2024-01-30T14:17:21;10.60;99.90
8832;DHT22;4452;50.756;4.472;2024-01-30T14:19:47;10.40;99.90
8832;DHT22;4452;50.756;4.472;2024-01-30T14:22:12;10.50;99.90
8832;DHT22;4452;50.756;4.472;2024-01-30T14:24:38;10.30;99.90
8832;DHT22;4452;50.756;4.472;2024-01-30T14:27:04;10.40;99.90
8832;DHT22;4452;50.756;4.472;2024-01-30T14:29:30;10.40;99.90
8832;DHT22;4452;50.756;4.472;2024-01-30T14:31:55;10.30;99.90
8832;DHT22;4452;50.756;4.472;2024-01-30T14:34:22;10.30;99.90
8832;DHT22;4452;50.756;4.472;2024-01-30T14:36:48;10.20;99.90
8832;DHT22;4452;50.756;4.472;2024-01-30T14:39:13;10.10;99.90
8832;DHT22;4452;50.756;4.472;2024-01-30T14:41:39;10.10;99.90
8832;DHT22;4452;50.756;4.472;2024-01-30T14:44:05;10.20;99.90
8832;DHT22;4452;50.756;4.472;2024-01-30T14:46:31;10.20;99.90
8832;DHT22;4452;50.756;4.472;2024-01-30T14:48:57;10.10;99.90
8832;DHT22;4452;50.756;4.472;2024-01-30T14:51:24;10.20;99.90
8832;DHT22;4452;50.756;4.472;2024-01-30T14:53:50;10.20;99.90
8832;DHT22;4452;50.756;4.472;2024-01-30T14:56:16;10.10;99.90
8832;DHT22;4452;50.756;4.472;2024-01-30T14:58:43;10.00;99.90
8832;DHT22;4452;50.756;4.472;2024-01-30T15:01:09;10.00;99.90
8832;DHT22;4452;50.756;4.472;2024-01-30T15:03:34;9.90;99.90
8832;DHT22;4452;50.756;4.472;2024-01-30T15:06:01;9.90;99.90
8832;DHT22;4452;50.756;4.472;2024-01-30T15:08:27;9.90;99.90
8832;DHT22;4452;50.756;4.472;2024-01-30T15:10:52;10.00;99.90
8832;DHT22;4452;50.756;4.472;2024-01-30T15:13:19;9.90;99.90
8832;DHT22;4452;50.756;4.472;2024-01-30T15:15:44;9.80;99.90
8832;DHT22;4452;50.756;4.472;2024-01-30T15:18:10;9.60;99.90
8832;DHT22;4452;50.756;4.472;2024-01-30T15:20:36;9.60;99.90
8832;DHT22;4452;50.756;4.472;2024-01-30T15:23:02;9.60;99.90
8832;DHT22;4452;50.756;4.472;2024-01-30T15:25:28;9.50;99.90
8832;DHT22;4452;50.756;4.472;2024-01-30T15:27:54;9.50;99.90
8832;DHT22;4452;50.756;4.472;2024-01-30T15:30:20;9.40;99.90
8832;DHT22;4452;50.756;4.472;2024-01-30T15:32:46;9.30;99.90
8832;DHT22;4452;50.756;4.472;2024-01-30T15:35:12;9.30;99.90
8832;DHT22;4452;50.756;4.472;2024-01-30T15:37:38;9.30;99.90
8832;DHT22;4452;50.756;4.472;2024-01-30T15:40:04;9.30;99.90
8832;DHT22;4452;50.756;4.472;2024-01-30T15:42:32;9.30;99.90
8832;DHT22;4452;50.756;4.472;2024-01-30T15:44:58;9.30;99.90
8832;DHT22;4452;50.756;4.472;2024-01-30T15:47:24;9.20;99.90
8832;DHT22;4452;50.756;4.472;2024-01-30T15:49:50;9.30;99.90
8832;DHT22;4452;50.756;4.472;2024-01-30T15:52:16;9.20;99.90
8832;DHT22;4452;50.756;4.472;2024-01-30T15:54:46;9.30;99.90
8832;DHT22;4452;50.756;4.472;2024-01-30T15:57:12;9.30;99.90
8832;DHT22;4452;50.756;4.472;2024-01-30T15:59:38;9.20;99.90
8832;DHT22;4452;50.756;4.472;2024-01-30T16:02:04;9.20;99.90
8832;DHT22;4452;50.756;4.472;2024-01-30T16:04:30;9.20;99.90
8832;DHT22;4452;50.756;4.472;2024-01-30T16:06:56;9.10;99.90
8832;DHT22;4452;50.756;4.472;2024-01-30T16:09:25;9.10;99.90